createdAt,value
2019-01-26T00:01:20.293Z,14.63
2019-01-26T00:03:49.376Z,16.00
2019-01-26T00:06:18.058Z,16.13
2019-01-26T00:08:46.368Z,13.13
2019-01-26T00:11:15.025Z,15.70
2019-01-26T00:13:43.726Z,10.83
2019-01-26T00:16:12.425Z,15.17
2019-01-26T00:18:41.477Z,17.43
2019-01-26T00:21:09.876Z,12.63
2019-01-26T00:23:38.465Z,17.17
2019-01-26T00:26:07.437Z,15.33
2019-01-26T00:28:36.013Z,13.83
2019-01-26T00:31:04.727Z,14.77
2019-01-26T00:33:33.523Z,15.10
2019-01-26T00:36:01.878Z,12.27
2019-01-26T00:38:30.590Z,11.30
2019-01-26T00:40:59.865Z,9.90
2019-01-26T00:43:28.453Z,10.90
2019-01-26T00:45:57.041Z,8.90
2019-01-26T00:48:25.706Z,11.00
2019-01-26T00:50:54.398Z,11.57
2019-01-26T00:53:23.101Z,10.57
2019-01-26T00:55:51.765Z,9.03
2019-01-26T00:58:23.646Z,6.93
2019-01-26T01:00:56.245Z,7.00
2019-01-26T01:03:24.631Z,4.63
2019-01-26T01:05:53.274Z,6.63
2019-01-26T01:08:21.969Z,8.37
2019-01-26T01:10:50.653Z,5.67
2019-01-26T01:13:19.353Z,8.60
2019-01-26T01:15:48.475Z,7.77
2019-01-26T01:18:16.812Z,9.23
2019-01-26T01:20:45.212Z,7.20
2019-01-26T01:23:13.948Z,5.83
2019-01-26T01:25:43.337Z,7.53
2019-01-26T01:28:11.549Z,7.53
2019-01-26T01:30:40.357Z,9.40
2019-01-26T01:33:09.022Z,7.50
2019-01-26T01:35:37.706Z,11.57
2019-01-26T01:38:06.216Z,9.63
2019-01-26T01:40:34.863Z,5.23
2019-01-26T01:43:03.146Z,10.80
2019-01-26T01:45:31.840Z,7.57
2019-01-26T01:48:00.523Z,7.17
2019-01-26T01:50:29.180Z,7.67
2019-01-26T01:52:57.625Z,11.20
2019-01-26T01:55:26.373Z,7.63
2019-01-26T01:57:54.854Z,9.90
2019-01-26T02:00:24.561Z,7.93
2019-01-26T02:02:58.573Z,6.60
2019-01-26T02:05:27.321Z,6.83
2019-01-26T02:07:55.942Z,7.60
2019-01-26T02:10:25.032Z,8.00
2019-01-26T02:12:53.745Z,7.77
2019-01-26T02:15:22.424Z,7.43
2019-01-26T02:17:50.683Z,7.27
2019-01-26T02:20:21.132Z,7.87
2019-01-26T02:22:49.782Z,7.47
2019-01-26T02:25:18.065Z,7.77
2019-01-26T02:27:46.894Z,6.03
2019-01-26T02:30:17.962Z,7.03
2019-01-26T02:32:46.509Z,7.07
2019-01-26T02:35:15.264Z,10.03
2019-01-26T02:37:44.161Z,7.10
2019-01-26T02:40:13.493Z,6.33
2019-01-26T02:42:42.829Z,8.07
2019-01-26T02:45:11.866Z,10.27
2019-01-26T02:47:40.337Z,6.60
2019-01-26T02:50:12.130Z,8.27
2019-01-26T02:52:40.702Z,8.80
2019-01-26T02:55:09.421Z,5.93
2019-01-26T02:57:38.109Z,7.03
2019-01-26T03:00:10.963Z,5.47
2019-01-26T03:02:39.711Z,8.17
2019-01-26T03:05:11.506Z,5.43
2019-01-26T03:07:40.160Z,8.50
2019-01-26T03:10:09.868Z,7.00
2019-01-26T03:12:38.181Z,8.13
2019-01-26T03:15:09.911Z,5.77
2019-01-26T03:17:38.430Z,7.27
2019-01-26T03:20:08.828Z,8.93
2019-01-26T03:22:37.550Z,7.03
2019-01-26T03:25:06.629Z,6.20
2019-01-26T03:27:34.978Z,6.83
2019-01-26T03:30:06.446Z,6.27
2019-01-26T03:32:35.196Z,8.93
2019-01-26T03:35:05.130Z,6.07
2019-01-26T03:37:33.842Z,6.57
2019-01-26T03:40:03.073Z,7.87
2019-01-26T03:42:31.791Z,7.83
2019-01-26T03:45:00.357Z,8.73
2019-01-26T03:47:28.661Z,8.33
2019-01-26T03:49:57.222Z,5.77
2019-01-26T03:52:29.709Z,7.67
2019-01-26T03:54:58.797Z,8.13
2019-01-26T03:57:27.409Z,8.70
2019-01-26T03:59:56.084Z,7.20
2019-01-26T04:02:24.749Z,6.07
2019-01-26T04:04:53.436Z,7.23
2019-01-26T04:07:22.963Z,5.93
2019-01-26T04:09:51.613Z,6.40
2019-01-26T04:12:20.266Z,8.50
2019-01-26T04:14:49.009Z,11.53
2019-01-26T04:17:21.787Z,8.43
2019-01-26T04:19:47.292Z,9.03
2019-01-26T04:22:16.932Z,8.10
2019-01-26T04:24:45.580Z,10.63
2019-01-26T04:27:14.657Z,8.70
2019-01-26T04:29:42.976Z,8.23
2019-01-26T04:32:11.898Z,7.10
2019-01-26T04:34:40.231Z,9.10
2019-01-26T04:37:09.368Z,7.70
2019-01-26T04:39:37.902Z,8.37
2019-01-26T04:42:07.205Z,7.93
2019-01-26T04:44:37.599Z,7.00
2019-01-26T04:47:06.423Z,7.57
2019-01-26T04:49:34.697Z,7.47
2019-01-26T04:52:03.211Z,5.53
2019-01-26T04:54:32.147Z,6.07
2019-01-26T04:57:00.786Z,4.43
2019-01-26T04:59:29.445Z,5.03
2019-01-26T05:01:58.110Z,5.83
2019-01-26T05:04:26.790Z,6.60
2019-01-26T05:06:56.087Z,6.40
2019-01-26T05:09:26.334Z,9.33
2019-01-26T05:11:54.914Z,7.73
2019-01-26T05:14:23.613Z,6.57
2019-01-26T05:16:52.494Z,4.53
2019-01-26T05:19:21.161Z,7.53
2019-01-26T05:21:49.870Z,6.43
2019-01-26T05:24:18.530Z,7.07
2019-01-26T05:26:47.216Z,7.20
2019-01-26T05:29:15.927Z,4.73
2019-01-26T05:31:44.586Z,7.63
2019-01-26T05:34:13.893Z,4.87
2019-01-26T05:36:42.605Z,4.93
2019-01-26T05:39:10.858Z,5.63
2019-01-26T05:41:39.792Z,6.83
2019-01-26T05:44:08.165Z,5.90
2019-01-26T05:46:36.701Z,5.93
2019-01-26T05:49:05.739Z,7.47
2019-01-26T05:51:34.264Z,5.80
2019-01-26T05:54:02.970Z,7.20
2019-01-26T05:56:31.846Z,6.07
2019-01-26T05:59:01.159Z,4.87
2019-01-26T06:01:31.458Z,6.47
2019-01-26T06:03:59.761Z,8.87
2019-01-26T06:06:28.473Z,6.30
2019-01-26T06:08:57.128Z,7.73
2019-01-26T06:11:31.985Z,6.83
2019-01-26T06:14:00.836Z,6.73
2019-01-26T06:16:29.234Z,7.10
2019-01-26T06:18:57.842Z,8.30
2019-01-26T06:21:26.494Z,6.63
2019-01-26T06:23:54.770Z,9.77
2019-01-26T06:26:23.520Z,9.73
2019-01-26T06:28:52.142Z,7.83
2019-01-26T06:31:20.837Z,7.80
2019-01-26T06:33:49.544Z,6.73
2019-01-26T06:36:18.201Z,6.93
2019-01-26T06:38:46.891Z,7.37
2019-01-26T06:41:15.606Z,8.40
2019-01-26T06:43:44.564Z,9.03
2019-01-26T06:46:13.140Z,9.27
2019-01-26T06:48:41.853Z,5.70
2019-01-26T06:51:10.523Z,10.67
2019-01-26T06:53:39.196Z,5.60
2019-01-26T06:56:07.922Z,6.83
2019-01-26T06:58:36.574Z,7.50
2019-01-26T07:01:05.458Z,7.83
2019-01-26T07:03:34.197Z,8.73
2019-01-26T07:06:12.153Z,7.93
2019-01-26T07:08:40.747Z,7.60
2019-01-26T07:11:09.425Z,7.70
2019-01-26T07:13:38.120Z,8.93
2019-01-26T07:16:06.816Z,9.17
2019-01-26T07:18:35.468Z,7.67
2019-01-26T07:21:04.169Z,5.70
2019-01-26T07:23:32.969Z,5.47
2019-01-26T07:26:16.110Z,8.53
2019-01-26T07:28:45.305Z,6.47
2019-01-26T07:31:15.370Z,6.83
2019-01-26T07:33:43.974Z,7.80
2019-01-26T07:36:12.726Z,6.10
2019-01-26T07:38:41.031Z,8.00
2019-01-26T07:41:10.095Z,8.40
2019-01-26T07:43:39.107Z,7.80
2019-01-26T07:46:07.604Z,10.63
2019-01-26T07:48:36.498Z,8.97
2019-01-26T07:51:08.092Z,10.03
2019-01-26T07:53:36.735Z,5.87
2019-01-26T07:56:06.247Z,9.80
2019-01-26T07:58:35.569Z,10.27
2019-01-26T08:01:04.217Z,10.77
2019-01-26T08:03:34.545Z,7.43
2019-01-26T08:06:03.350Z,7.13
2019-01-26T08:08:31.710Z,8.07
2019-01-26T08:11:01.081Z,8.70
2019-01-26T08:13:29.420Z,9.53
2019-01-26T08:15:59.691Z,6.97
2019-01-26T08:18:28.306Z,8.73
2019-01-26T08:21:02.820Z,7.83
2019-01-26T08:23:31.100Z,7.67
2019-01-26T08:25:59.724Z,9.07
2019-01-26T08:28:29.526Z,9.70
2019-01-26T08:30:57.865Z,8.10
2019-01-26T08:33:27.087Z,9.63
2019-01-26T08:35:55.890Z,7.53
2019-01-26T08:38:24.941Z,7.47
2019-01-26T08:40:53.340Z,10.60
2019-01-26T08:43:23.793Z,10.20
2019-01-26T08:45:53.247Z,8.83
2019-01-26T08:48:21.540Z,7.00
2019-01-26T08:50:51.330Z,8.20
2019-01-26T08:53:20.035Z,8.27
2019-01-26T08:55:48.434Z,21.23
2019-01-26T08:58:17.299Z,26.37
2019-01-26T09:00:46.162Z,28.37
2019-01-26T09:03:34.007Z,28.13
2019-01-26T09:06:10.675Z,15.47
2019-01-26T09:08:40.197Z,10.00
2019-01-26T09:11:15.033Z,10.77
2019-01-26T09:13:44.179Z,13.53
2019-01-26T09:16:19.501Z,17.27
2019-01-26T09:18:47.879Z,15.67
2019-01-26T09:21:16.449Z,10.03
2019-01-26T09:23:45.118Z,12.17
2019-01-26T09:26:13.845Z,9.40
2019-01-26T09:28:42.179Z,9.50
2019-01-26T09:31:10.785Z,10.13
2019-01-26T09:33:39.549Z,10.87
2019-01-26T09:36:08.134Z,9.13
2019-01-26T09:38:36.689Z,9.97
2019-01-26T09:41:05.335Z,9.00
2019-01-26T09:43:33.786Z,8.83
2019-01-26T09:46:02.199Z,8.60
2019-01-26T09:48:30.687Z,9.47
2019-01-26T09:50:59.624Z,9.33
2019-01-26T09:53:27.954Z,10.30
2019-01-26T09:55:56.641Z,8.03
2019-01-26T09:58:25.297Z,7.67
2019-01-26T10:00:53.365Z,8.60
2019-01-26T10:03:22.241Z,9.53
2019-01-26T10:05:50.753Z,8.50
2019-01-26T10:08:19.442Z,7.10
2019-01-26T10:10:48.258Z,6.70
2019-01-26T10:13:17.513Z,8.47
2019-01-26T10:15:46.097Z,5.47
2019-01-26T10:18:20.342Z,6.90
2019-01-26T10:20:48.985Z,7.53
2019-01-26T10:23:17.674Z,6.37
2019-01-26T10:25:48.685Z,5.30
2019-01-26T10:28:17.695Z,5.63
2019-01-26T10:30:52.696Z,4.37
2019-01-26T10:33:21.192Z,5.67
2019-01-26T10:36:18.095Z,7.07
2019-01-26T10:38:56.998Z,6.87
2019-01-26T10:41:47.254Z,7.17
2019-01-26T10:44:21.218Z,12.40
2019-01-26T10:46:49.800Z,7.80
2019-01-26T10:49:19.189Z,6.00
2019-01-26T10:51:47.761Z,8.73
2019-01-26T10:54:17.323Z,6.53
2019-01-26T10:56:48.584Z,9.93
2019-01-26T10:59:17.337Z,7.90
2019-01-26T11:01:45.574Z,11.97
2019-01-26T11:04:14.249Z,15.20
2019-01-26T11:06:42.972Z,5.77
2019-01-26T11:09:12.250Z,4.50
2019-01-26T11:11:40.726Z,6.23
2019-01-26T11:14:09.433Z,6.63
2019-01-26T11:16:37.689Z,6.23
2019-01-26T11:19:08.354Z,3.50
2019-01-26T11:21:36.991Z,4.23
2019-01-26T11:24:05.683Z,3.13
2019-01-26T11:26:48.931Z,4.80
2019-01-26T11:29:46.985Z,3.60
2019-01-26T11:32:21.849Z,4.63
2019-01-26T11:34:50.970Z,6.73
2019-01-26T11:37:20.757Z,4.47
2019-01-26T11:40:27.616Z,8.77
2019-01-26T11:43:05.424Z,5.57
2019-01-26T11:46:18.700Z,2.70
2019-01-26T11:48:53.434Z,9.23
2019-01-26T11:51:36.463Z,8.67
2019-01-26T11:54:05.060Z,8.30
2019-01-26T11:56:53.195Z,6.83
2019-01-26T11:59:22.670Z,8.33
2019-01-26T12:02:16.881Z,12.17
2019-01-26T12:05:11.799Z,12.33
2019-01-26T12:07:48.770Z,11.27
2019-01-26T12:10:19.263Z,6.00
2019-01-26T12:12:50.526Z,9.87
2019-01-26T12:15:21.790Z,7.13
2019-01-26T12:17:51.951Z,7.70
2019-01-26T12:20:21.499Z,21.70
2019-01-26T12:22:50.026Z,14.47
2019-01-26T12:25:18.859Z,8.77
2019-01-26T12:27:47.299Z,7.67
2019-01-26T12:30:16.062Z,6.20
2019-01-26T12:32:44.590Z,5.03
2019-01-26T12:35:13.655Z,6.13
2019-01-26T12:37:42.761Z,4.57
2019-01-26T12:40:11.988Z,4.90
2019-01-26T12:42:40.762Z,3.73
2019-01-26T12:45:12.671Z,4.70
2019-01-26T12:47:41.384Z,4.50
2019-01-26T12:50:10.306Z,4.17
2019-01-26T12:52:41.454Z,3.70
2019-01-26T12:55:11.859Z,3.90
2019-01-26T12:57:41.642Z,4.50
2019-01-26T13:00:14.850Z,3.50
2019-01-26T13:02:44.747Z,5.57
2019-01-26T13:05:22.320Z,5.23
2019-01-26T13:07:50.881Z,5.40
2019-01-26T13:10:22.780Z,3.83
2019-01-26T13:12:51.927Z,5.23
2019-01-26T13:15:20.987Z,4.70
2019-01-26T13:17:49.665Z,3.43
2019-01-26T13:20:18.909Z,7.70
2019-01-26T13:22:47.558Z,10.33
2019-01-26T13:25:22.051Z,8.17
2019-01-26T13:27:50.662Z,5.90
2019-01-26T13:30:19.708Z,8.13
2019-01-26T13:32:48.158Z,4.97
2019-01-26T13:35:17.223Z,7.17
2019-01-26T13:37:45.795Z,9.33
2019-01-26T13:40:17.084Z,7.57
2019-01-26T13:42:45.334Z,12.67
2019-01-26T13:45:19.783Z,5.63
2019-01-26T13:47:48.534Z,7.80
2019-01-26T13:50:17.238Z,6.27
2019-01-26T13:52:45.816Z,6.80
2019-01-26T13:55:15.983Z,7.37
2019-01-26T13:57:44.529Z,6.10
2019-01-26T14:00:27.546Z,4.87
2019-01-26T14:02:56.017Z,4.13
2019-01-26T14:05:29.029Z,3.37
2019-01-26T14:07:57.889Z,3.77
2019-01-26T14:10:26.358Z,2.90
2019-01-26T14:12:54.867Z,2.80
2019-01-26T14:15:33.989Z,3.90
2019-01-26T14:18:04.317Z,3.37
2019-01-26T14:20:32.969Z,4.87
2019-01-26T14:23:01.664Z,7.30
2019-01-26T14:25:30.379Z,5.13
2019-01-26T14:27:58.820Z,4.27
2019-01-26T14:30:29.914Z,3.77
2019-01-26T14:32:58.685Z,4.07
2019-01-26T14:35:27.634Z,4.50
2019-01-26T14:37:56.065Z,3.93
2019-01-26T14:40:24.536Z,4.73
2019-01-26T14:42:54.345Z,4.67
2019-01-26T14:45:23.756Z,4.80
2019-01-26T14:47:52.440Z,3.53
2019-01-26T14:50:21.090Z,4.87
2019-01-26T14:52:49.839Z,3.37
2019-01-26T14:55:20.427Z,3.70
2019-01-26T14:57:48.989Z,7.17
2019-01-26T15:00:23.030Z,6.47
2019-01-26T15:02:51.911Z,4.77
2019-01-26T15:05:20.186Z,5.07
2019-01-26T15:07:54.630Z,5.23
2019-01-26T15:10:24.491Z,6.27
2019-01-26T15:12:53.211Z,7.50
2019-01-26T15:15:21.702Z,8.63
2019-01-26T15:17:50.378Z,6.63
2019-01-26T15:20:21.946Z,6.57
2019-01-26T15:22:50.596Z,6.80
2019-01-26T15:25:19.277Z,11.93
2019-01-26T15:27:47.801Z,11.73
2019-01-26T15:30:28.949Z,7.97
2019-01-26T15:32:57.340Z,8.73
2019-01-26T15:35:25.910Z,6.47
2019-01-26T15:37:54.591Z,7.27
2019-01-26T15:40:23.336Z,7.53
2019-01-26T15:42:51.966Z,7.77
2019-01-26T15:45:23.342Z,9.20
2019-01-26T15:47:52.211Z,7.63
2019-01-26T15:50:20.845Z,7.90
2019-01-26T15:52:50.013Z,5.33
2019-01-26T15:55:20.601Z,6.70
2019-01-26T15:57:49.402Z,6.67
2019-01-26T16:00:20.261Z,6.47
2019-01-26T16:02:48.521Z,8.43
2019-01-26T16:05:20.677Z,7.90
2019-01-26T16:07:49.797Z,7.90
2019-01-26T16:10:19.916Z,8.37
2019-01-26T16:12:48.591Z,8.30
2019-01-26T16:15:19.218Z,6.70
2019-01-26T16:17:48.062Z,6.13
2019-01-26T16:20:20.422Z,5.63
2019-01-26T16:22:47.530Z,8.70
2019-01-26T16:25:21.322Z,6.43
2019-01-26T16:27:50.009Z,9.00
2019-01-26T16:30:26.910Z,6.17
2019-01-26T16:32:55.580Z,6.87
2019-01-26T16:35:24.359Z,5.63
2019-01-26T16:37:53.193Z,5.20
2019-01-26T16:40:24.789Z,6.17
2019-01-26T16:43:00.798Z,6.10
2019-01-26T16:45:31.615Z,6.93
2019-01-26T16:47:59.958Z,6.83
2019-01-26T16:50:29.223Z,3.90
2019-01-26T16:52:57.561Z,5.40
2019-01-26T16:55:26.492Z,6.57
2019-01-26T16:57:55.172Z,9.17
2019-01-26T17:00:30.776Z,5.90
2019-01-26T17:03:00.521Z,5.50
2019-01-26T17:05:29.193Z,6.27
2019-01-26T17:08:08.883Z,6.60
2019-01-26T17:10:37.557Z,7.13
2019-01-26T17:13:06.182Z,14.20
2019-01-26T17:15:34.805Z,10.70
2019-01-26T17:18:04.288Z,29.27
2019-01-26T17:20:35.031Z,11.30
2019-01-26T17:23:03.807Z,11.87
2019-01-26T17:25:33.605Z,6.63
2019-01-26T17:28:02.306Z,8.13
2019-01-26T17:30:33.166Z,10.10
2019-01-26T17:33:07.319Z,6.63
2019-01-26T17:35:33.909Z,6.53
2019-01-26T17:38:02.975Z,11.80
2019-01-26T17:40:34.117Z,9.77
2019-01-26T17:43:02.819Z,8.03
2019-01-26T17:45:31.259Z,7.50
2019-01-26T17:47:59.826Z,8.77
2019-01-26T17:50:28.846Z,10.97
2019-01-26T17:52:57.671Z,11.33
2019-01-26T17:55:26.270Z,15.67
2019-01-26T17:57:54.509Z,14.97
2019-01-26T18:00:46.329Z,14.67
2019-01-26T18:03:15.030Z,12.70
2019-01-26T18:05:43.447Z,14.03
2019-01-26T18:08:18.012Z,12.87
2019-01-26T18:10:46.903Z,14.33
2019-01-26T18:13:15.281Z,15.43
2019-01-26T18:15:44.009Z,19.60
2019-01-26T18:18:12.670Z,27.50
2019-01-26T18:20:41.817Z,12.83
2019-01-26T18:23:21.409Z,11.93
2019-01-26T18:25:50.085Z,15.17
2019-01-26T18:28:18.678Z,13.80
2019-01-26T18:30:47.187Z,18.37
2019-01-26T18:33:15.833Z,12.10
2019-01-26T18:35:45.206Z,9.23
2019-01-26T18:38:13.854Z,12.67
2019-01-26T18:40:42.330Z,10.50
2019-01-26T18:43:11.003Z,12.00
2019-01-26T18:45:39.289Z,14.23
2019-01-26T18:48:07.954Z,11.17
2019-01-26T18:50:38.477Z,11.87
2019-01-26T18:53:07.182Z,9.20
2019-01-26T18:55:35.857Z,7.97
2019-01-26T18:58:04.930Z,13.50
2019-01-26T19:00:35.918Z,9.73
2019-01-26T19:03:18.389Z,16.60
2019-01-26T19:05:46.813Z,9.57
2019-01-26T19:08:15.348Z,11.90
2019-01-26T19:10:43.728Z,13.20
2019-01-26T19:13:12.462Z,8.80
2019-01-26T19:15:41.358Z,20.73
2019-01-26T19:18:10.978Z,22.53
2019-01-26T19:20:39.208Z,18.37
2019-01-26T19:23:07.650Z,13.37
2019-01-26T19:25:36.238Z,14.57
2019-01-26T19:28:04.735Z,17.50
2019-01-26T19:30:33.621Z,11.53
2019-01-26T19:33:02.310Z,14.57
2019-01-26T19:35:30.862Z,17.03
2019-01-26T19:37:59.277Z,15.10
2019-01-26T19:40:27.649Z,15.67
2019-01-26T19:42:56.446Z,21.50
2019-01-26T19:45:25.842Z,14.80
2019-01-26T19:47:54.309Z,13.17
2019-01-26T19:50:23.572Z,12.60
2019-01-26T19:52:52.561Z,10.50
2019-01-26T19:55:21.912Z,12.30
2019-01-26T19:57:50.310Z,13.27
2019-01-26T20:00:19.169Z,11.10
2019-01-26T20:02:47.552Z,11.37
2019-01-26T20:05:18.563Z,10.90
2019-01-26T20:07:47.269Z,9.93
2019-01-26T20:10:16.378Z,12.03
2019-01-26T20:12:45.290Z,19.87
2019-01-26T20:15:15.929Z,38.17
2019-01-26T20:17:44.396Z,22.87
2019-01-26T20:20:15.441Z,20.03
2019-01-26T20:22:43.989Z,14.47
2019-01-26T20:25:12.988Z,14.77
2019-01-26T20:27:41.397Z,13.57
2019-01-26T20:30:14.006Z,10.07
2019-01-26T20:32:42.361Z,12.70
2019-01-26T20:35:10.801Z,11.93
2019-01-26T20:37:39.287Z,11.77
2019-01-26T20:40:10.741Z,13.80
2019-01-26T20:42:39.413Z,13.07
2019-01-26T20:45:10.503Z,11.77
2019-01-26T20:47:39.043Z,10.60
2019-01-26T20:50:08.602Z,14.23
2019-01-26T20:52:37.273Z,15.73
2019-01-26T20:55:05.940Z,10.80
2019-01-26T20:57:34.309Z,10.97
2019-01-26T21:00:04.237Z,13.87
2019-01-26T21:02:33.344Z,18.50
2019-01-26T21:05:01.889Z,13.20
2019-01-26T21:07:30.413Z,12.80
2019-01-26T21:09:59.065Z,16.37
2019-01-26T21:12:27.746Z,16.73
2019-01-26T21:14:56.047Z,14.57
2019-01-26T21:17:25.002Z,20.13
2019-01-26T21:19:53.297Z,20.00
2019-01-26T21:22:21.679Z,22.63
2019-01-26T21:24:50.057Z,17.77
2019-01-26T21:27:18.324Z,18.43
2019-01-26T21:29:46.925Z,20.10
2019-01-26T21:32:15.292Z,19.90
2019-01-26T21:34:43.866Z,24.80
2019-01-26T21:37:12.576Z,23.23
2019-01-26T21:39:41.242Z,23.47
2019-01-26T21:42:09.935Z,22.87
2019-01-26T21:44:38.351Z,21.70
2019-01-26T21:47:06.680Z,21.53
2019-01-26T21:49:35.366Z,27.53
2019-01-26T21:52:04.185Z,22.03
2019-01-26T21:54:32.741Z,24.03
2019-01-26T21:57:01.424Z,21.13
2019-01-26T21:59:30.141Z,17.23
2019-01-26T22:01:58.480Z,19.67
2019-01-26T22:04:27.342Z,22.57
2019-01-26T22:06:56.043Z,21.30
2019-01-26T22:09:24.489Z,20.47
2019-01-26T22:11:53.134Z,22.93
2019-01-26T22:14:27.377Z,23.53
2019-01-26T22:16:56.032Z,20.97
2019-01-26T22:19:24.305Z,24.70
2019-01-26T22:21:53.030Z,28.17
2019-01-26T22:24:21.494Z,24.17
2019-01-26T22:26:50.171Z,26.13
2019-01-26T22:29:19.070Z,23.57
2019-01-26T22:31:48.279Z,21.43
2019-01-26T22:34:17.237Z,18.80
2019-01-26T22:36:45.755Z,21.07
2019-01-26T22:39:14.967Z,21.73
2019-01-26T22:41:43.308Z,20.63
2019-01-26T22:44:11.808Z,17.97
2019-01-26T22:46:40.453Z,20.10
2019-01-26T22:49:09.137Z,16.07
2019-01-26T22:51:38.185Z,16.37
2019-01-26T22:54:06.930Z,17.37
2019-01-26T22:56:35.198Z,16.27
2019-01-26T22:59:03.918Z,18.73
2019-01-26T23:01:38.828Z,14.83
2019-01-26T23:04:41.533Z,18.50
2019-01-26T23:07:46.139Z,16.87
2019-01-26T23:10:51.985Z,13.10
2019-01-26T23:13:27.954Z,15.27
2019-01-26T23:16:33.958Z,13.97
2019-01-26T23:19:19.996Z,18.77
2019-01-26T23:22:22.315Z,15.83
2019-01-26T23:25:31.323Z,13.03
2019-01-26T23:28:41.089Z,11.73
2019-01-26T23:31:19.638Z,9.93
2019-01-26T23:33:50.372Z,14.13
2019-01-26T23:36:19.002Z,12.03
2019-01-26T23:38:47.571Z,11.13
2019-01-26T23:41:16.085Z,14.87
2019-01-26T23:43:44.709Z,13.23
2019-01-26T23:46:13.430Z,14.33
2019-01-26T23:48:42.560Z,14.77
2019-01-26T23:51:11.213Z,16.70
2019-01-26T23:53:39.694Z,14.90
2019-01-26T23:56:08.097Z,17.77
2019-01-26T23:58:37.514Z,15.00
